Time;durP1;ratioP1;P1;durP2;ratioP2;P2;SDS_P1;SDS_P2;PMS_P1;PMS_P2;Temp;Humidity;BMP_temperature;BMP_pressure;BME280_temperature;BME280_humidity;BME280_pressure;Samples;Min_cycle;Max_cycle;Signal;HPM_P1;HPM_P2
2022/01/12 00:02:37;;;;;;;;;;;;;;;18.43;56.64;102119.66;4991092;28;1715;-36
2022/01/12 00:05:08;;;;;;;;;;;;;;;18.29;56.93;102113.34;4992360;28;1056;-36
2022/01/12 00:07:35;;;;;;;;;;;;;;;18.23;57.60;102118.25;4984006;28;1801;-36
2022/01/12 00:10:10;;;;;;;;;;;;;;;18.33;57.60;102123.88;4982643;28;1970;-36
2022/01/12 00:12:36;;;;;;;;;;;;;;;18.59;56.95;102130.22;4987436;28;1648;-37
2022/01/12 00:15:03;;;;;;;;;;;;;;;18.79;56.22;102128.94;4987125;28;1661;-37
2022/01/12 00:17:31;;;;;;;;;;;;;;;18.90;56.56;102138.97;4986806;28;1807;-36
2022/01/12 00:19:57;;;;;;;;;;;;;;;18.93;55.78;102144.97;4975389;28;1906;-36
2022/01/12 00:22:26;;;;;;;;;;;;;;;19.01;55.40;102139.13;4985350;28;1611;-36
2022/01/12 00:25:11;;;;;;;;;;;;;;;19.00;55.37;102140.94;4981434;28;2023;-37
2022/01/12 00:33:11;;;;;;;;;;;;;;;18.93;55.69;102158.38;4986223;28;1922;-37
2022/01/12 00:35:59;;;;;;;;;;;;;;;18.88;55.74;102147.13;4992056;28;1770;-37
2022/01/12 00:38:29;;;;;;;;;;;;;;;18.84;55.91;102156.31;4985550;28;1780;-37
2022/01/12 00:40:56;;;;;;;;;;;;;;;18.84;55.95;102165.22;4982338;28;1911;-37
2022/01/12 00:43:29;;;;;;;;;;;;;;;18.79;56.32;102167.34;4993909;28;1882;-36
2022/01/12 00:45:56;;;;;;;;;;;;;;;18.81;56.30;102145.81;4983939;28;1447;-36
2022/01/12 00:48:27;;;;;;;;;;;;;;;18.87;55.58;102156.13;4985351;28;1106;-36
2022/01/12 00:50:55;;;;;;;;;;;;;;;18.73;56.06;102156.13;4992532;28;1945;-36
2022/01/12 00:53:22;;;;;;;;;;;;;;;18.71;55.37;102150.00;4979037;28;1889;-36
2022/01/12 00:55:52;;;;;;;;;;;;;;;18.63;55.54;102146.00;4992701;28;1808;-36
2022/01/12 00:58:21;;;;;;;;;;;;;;;18.63;55.94;102137.97;4984213;28;1907;-36
2022/01/12 01:00:56;;;;;;;;;;;;;;;18.55;56.00;102142.97;4978908;28;1975;-35
2022/01/12 01:03:24;;;;;;;;;;;;;;;18.59;56.09;102143.63;4989082;28;1762;-36
2022/01/12 01:08:31;;;;;;;;;;;;;;;18.49;56.77;102132.66;4980535;28;1813;-37
2022/01/12 01:10:59;;;;;;;;;;;;;;;18.45;56.61;102136.47;4988096;28;1680;-36
2022/01/12 01:13:55;;;;;;;;;;;;;;;18.47;56.15;102129.22;4984821;28;1271;-36
2022/01/12 01:16:49;;;;;;;;;;;;;;;18.47;56.32;102139.91;4984150;28;1861;-36
2022/01/12 01:27:51;;;;;;;;;;;;;;;18.93;53.76;102155.72;4984929;28;2029;-36
2022/01/12 01:30:18;;;;;;;;;;;;;;;18.96;53.70;102144.78;4988616;28;1897;-37
2022/01/12 01:32:50;;;;;;;;;;;;;;;18.96;53.66;102150.16;4980621;28;1667;-36
2022/01/12 01:35:20;;;;;;;;;;;;;;;18.95;54.77;102158.28;4981921;28;2029;-37
2022/01/12 01:37:47;;;;;;;;;;;;;;;18.92;54.01;102154.00;4966673;28;1102;-36
2022/01/12 01:40:14;;;;;;;;;;;;;;;18.94;53.63;102146.72;4989113;28;1970;-37
2022/01/12 01:43:07;;;;;;;;;;;;;;;18.94;53.89;102154.75;4983450;28;1999;-37
2022/01/12 01:54:03;;;;;;;;;;;;;;;18.72;54.31;102155.28;4985867;28;1571;-36
2022/01/12 01:56:32;;;;;;;;;;;;;;;18.73;53.99;102165.03;4984378;28;1912;-36
2022/01/12 01:58:59;;;;;;;;;;;;;;;18.78;54.40;102170.06;4991779;28;1818;-39
2022/01/12 02:01:29;;;;;;;;;;;;;;;18.73;54.15;102154.31;4990451;28;1987;-36
2022/01/12 02:04:01;;;;;;;;;;;;;;;18.81;54.10;102183.31;4990887;28;1300;-37
2022/01/12 02:06:35;;;;;;;;;;;;;;;18.81;54.83;102183.31;4991110;28;1496;-36
2022/01/12 02:09:01;;;;;;;;;;;;;;;18.82;53.58;102177.88;4988248;28;1568;-36
2022/01/12 02:11:31;;;;;;;;;;;;;;;18.73;54.79;102169.53;4985685;28;1602;-37
2022/01/12 02:14:00;;;;;;;;;;;;;;;18.69;54.68;102171.53;4988160;28;1643;-37
2022/01/12 02:16:33;;;;;;;;;;;;;;;18.72;54.46;102175.84;4991412;28;1679;-36
2022/01/12 02:19:29;;;;;;;;;;;;;;;18.64;54.28;102171.84;4996531;28;1008;-36
2022/01/12 02:36:16;;;;;;;;;;;;;;;18.71;53.76;102190.22;4982165;28;1906;-36
2022/01/12 02:41:33;;;;;;;;;;;;;;;18.68;54.01;102193.91;4986917;28;1977;-36
2022/01/12 02:55:07;;;;;;;;;;;;;;;18.74;54.15;102198.03;4983476;28;1899;-36
2022/01/12 02:57:37;;;;;;;;;;;;;;;18.78;54.59;102207.59;4985892;28;1964;-36
2022/01/12 03:02:52;;;;;;;;;;;;;;;18.93;53.92;102214.69;5013555;23;1756;-36
2022/01/12 03:05:32;;;;;;;;;;;;;;;18.97;54.18;102221.56;4986159;28;1597;-36
2022/01/12 03:08:08;;;;;;;;;;;;;;;18.98;53.61;102211.69;4979365;28;1785;-36
2022/01/12 03:10:38;;;;;;;;;;;;;;;19.00;54.29;102229.41;4980800;28;1935;-37
2022/01/12 03:13:11;;;;;;;;;;;;;;;18.97;53.68;102224.25;4993194;28;1401;-38
2022/01/12 03:15:41;;;;;;;;;;;;;;;19.00;53.66;102216.00;4982558;28;1865;-36
2022/01/12 03:18:07;;;;;;;;;;;;;;;19.10;53.84;102220.75;4981127;28;1638;-36
2022/01/12 03:20:34;;;;;;;;;;;;;;;19.26;52.41;102221.50;4978106;28;1977;-36
2022/01/12 03:25:45;;;;;;;;;;;;;;;19.14;52.55;102216.91;4976391;28;2433;-37
2022/01/12 03:28:14;;;;;;;;;;;;;;;19.07;53.12;102225.34;4995437;28;2049;-36
2022/01/12 03:30:51;;;;;;;;;;;;;;;19.11;52.94;102225.16;4986567;28;1135;-36
2022/01/12 03:33:49;;;;;;;;;;;;;;;18.96;53.98;102230.59;4984794;28;2009;-36
2022/01/12 03:36:41;;;;;;;;;;;;;;;18.91;53.36;102240.72;4978294;28;1341;-36
2022/01/12 03:39:13;;;;;;;;;;;;;;;18.84;53.82;102231.34;4977210;28;1766;-36
2022/01/12 03:41:44;;;;;;;;;;;;;;;18.76;54.00;102222.91;4986001;28;1906;-37
2022/01/12 03:44:18;;;;;;;;;;;;;;;18.90;53.20;102225.63;4989888;28;1563;-36
2022/01/12 03:46:51;;;;;;;;;;;;;;;18.97;53.25;102226.91;4980655;28;1635;-36
2022/01/12 03:49:19;;;;;;;;;;;;;;;18.86;52.58;102234.78;4994727;28;2047;-36
2022/01/12 03:51:50;;;;;;;;;;;;;;;18.82;52.95;102233.25;4983124;28;1777;-36
2022/01/12 03:54:24;;;;;;;;;;;;;;;18.93;52.56;102236.13;4983967;28;1472;-36
2022/01/12 03:56:53;;;;;;;;;;;;;;;18.86;53.14;102237.47;4993771;28;2024;-36
2022/01/12 03:59:21;;;;;;;;;;;;;;;18.72;53.13;102241.03;4993388;28;1783;-37
2022/01/12 04:01:50;;;;;;;;;;;;;;;18.58;53.20;102239.22;4983598;28;1981;-36
2022/01/12 04:04:23;;;;;;;;;;;;;;;18.44;54.47;102256.16;4985692;28;1008;-36
2022/01/12 04:09:39;;;;;;;;;;;;;;;18.31;54.95;102257.00;4976857;28;1663;-36
2022/01/12 04:12:07;;;;;;;;;;;;;;;18.26;55.12;102257.28;4981749;28;1761;-36
2022/01/12 04:14:45;;;;;;;;;;;;;;;18.21;55.19;102246.84;4986996;28;1962;-36
2022/01/12 04:17:12;;;;;;;;;;;;;;;18.23;55.32;102261.00;4979447;28;1967;-36
2022/01/12 04:19:39;;;;;;;;;;;;;;;18.19;55.61;102259.47;4984028;28;1259;-36
2022/01/12 04:23:16;;;;;;;;;;;;;;;18.18;55.64;102257.75;4980224;28;1996;-37
2022/01/12 04:25:04;;;;;;;;;;;;;;;18.16;55.92;102264.16;4988605;28;1566;-36
2022/01/12 04:27:31;;;;;;;;;;;;;;;18.16;55.75;102262.31;4983091;28;1754;-36
2022/01/12 04:30:02;;;;;;;;;;;;;;;18.10;55.83;102265.38;4976866;28;1777;-36
2022/01/12 04:32:31;;;;;;;;;;;;;;;18.14;55.80;102266.91;4985388;28;1309;-36
2022/01/12 04:35:00;;;;;;;;;;;;;;;18.19;55.75;102270.19;4979447;28;1064;-36
2022/01/12 04:37:29;;;;;;;;;;;;;;;18.14;56.15;102268.75;4989592;28;1923;-36
2022/01/12 04:39:59;;;;;;;;;;;;;;;18.11;56.13;102283.19;4982304;28;1584;-36
2022/01/12 04:42:27;;;;;;;;;;;;;;;18.14;56.01;102279.44;4989904;28;1983;-36
2022/01/12 04:45:00;;;;;;;;;;;;;;;18.12;56.08;102276.84;4982471;28;1777;-37
2022/01/12 04:47:57;;;;;;;;;;;;;;;18.28;56.44;102287.50;4978232;28;1851;-36
2022/01/12 04:50:24;;;;;;;;;;;;;;;18.38;55.92;102287.81;4992913;28;1706;-36
2022/01/12 04:52:55;;;;;;;;;;;;;;;18.45;56.19;102281.13;4975194;28;1075;-36
2022/01/12 04:55:23;;;;;;;;;;;;;;;18.57;55.18;102288.38;4990547;28;1837;-36
2022/01/12 04:57:53;;;;;;;;;;;;;;;18.62;55.98;102291.66;4980432;28;1987;-36
2022/01/12 05:00:22;;;;;;;;;;;;;;;18.72;55.04;102309.81;4978801;28;1625;-36
2022/01/12 05:08:36;;;;;;;;;;;;;;;18.87;55.22;102284.78;4990227;28;1820;-36
2022/01/12 05:13:49;;;;;;;;;;;;;;;18.94;54.60;102291.47;4977631;28;2310;-36
2022/01/12 05:16:27;;;;;;;;;;;;;;;19.00;55.31;102288.41;4987464;28;1489;-36
2022/01/12 05:18:56;;;;;;;;;;;;;;;19.05;55.15;102305.03;4992311;28;1724;-36
2022/01/12 05:21:44;;;;;;;;;;;;;;;19.06;55.33;102313.97;4991470;28;1906;-37
2022/01/12 05:24:11;;;;;;;;;;;;;;;19.05;55.51;102305.03;4979849;28;1780;-37
2022/01/12 05:26:38;;;;;;;;;;;;;;;19.05;54.84;102301.50;4994068;28;1949;-35
2022/01/12 05:29:07;;;;;;;;;;;;;;;19.03;54.74;102301.59;4975398;28;1170;-36
2022/01/12 05:31:34;;;;;;;;;;;;;;;19.10;55.69;102325.31;4984469;28;1635;-36
2022/01/12 05:34:04;;;;;;;;;;;;;;;19.12;54.84;102342.19;4978054;28;1836;-36
2022/01/12 05:36:32;;;;;;;;;;;;;;;19.01;54.88;102335.69;4982914;28;1252;-36
2022/01/12 05:39:00;;;;;;;;;;;;;;;18.99;55.63;102316.16;4983734;28;1835;-36
2022/01/12 05:41:28;;;;;;;;;;;;;;;18.95;55.51;102330.72;4990610;28;1902;-37
2022/01/12 05:43:57;;;;;;;;;;;;;;;18.94;56.04;102330.81;4984097;28;1817;-36
2022/01/12 05:46:33;;;;;;;;;;;;;;;18.89;55.83;102341.81;4984909;28;1563;-37
2022/01/12 05:51:47;;;;;;;;;;;;;;;18.80;56.30;102345.94;4990023;28;1994;-36
2022/01/12 05:54:17;;;;;;;;;;;;;;;18.75;56.29;102336.44;4985031;28;1475;-36
2022/01/12 05:56:47;;;;;;;;;;;;;;;18.71;56.31;102357.19;4991991;28;1824;-37
2022/01/12 05:59:17;;;;;;;;;;;;;;;18.69;56.28;102351.94;4978628;28;1826;-36
2022/01/12 06:01:43;;;;;;;;;;;;;;;18.65;56.07;102358.44;4978745;28;1910;-36
2022/01/12 06:04:10;;;;;;;;;;;;;;;18.64;56.24;102346.00;4976413;28;1143;-35
2022/01/12 06:06:40;;;;;;;;;;;;;;;18.62;56.83;102360.44;4978146;28;1566;-36
2022/01/12 06:09:12;;;;;;;;;;;;;;;18.64;56.21;102372.81;4990481;28;1536;-36
2022/01/12 06:11:42;;;;;;;;;;;;;;;18.59;56.31;102366.84;4984888;28;1340;-36
2022/01/12 06:16:50;;;;;;;;;;;;;;;18.62;56.72;102377.41;4985427;28;1684;-36
2022/01/12 06:19:20;;;;;;;;;;;;;;;18.59;56.08;102371.34;4993978;28;1076;-35
2022/01/12 06:21:47;;;;;;;;;;;;;;;18.63;56.20;102392.50;4986070;28;1910;-36
2022/01/12 06:24:17;;;;;;;;;;;;;;;18.59;55.73;102380.25;4992040;28;1514;-35
2022/01/12 06:26:47;;;;;;;;;;;;;;;18.61;55.96;102401.59;4986715;28;1601;-38
2022/01/12 06:29:40;;;;;;;;;;;;;;;18.62;55.59;102379.19;4977466;28;1598;-37
2022/01/12 06:32:08;;;;;;;;;;;;;;;18.66;55.88;102394.13;4978025;28;1566;-38
2022/01/12 06:34:34;;;;;;;;;;;;;;;18.62;56.62;102395.25;4992445;28;1352;-38
2022/01/12 06:37:02;;;;;;;;;;;;;;;18.60;56.28;102384.66;4986787;28;1957;-36
2022/01/12 06:39:30;;;;;;;;;;;;;;;18.71;55.79;102392.03;4987557;28;1659;-36
2022/01/12 06:41:59;;;;;;;;;;;;;;;18.77;59.08;102404.22;4982083;28;1999;-36
2022/01/12 06:44:27;;;;;;;;;;;;;;;18.67;56.92;102415.47;4981919;28;1604;-36
2022/01/12 06:46:56;;;;;;;;;;;;;;;18.68;56.42;102408.28;4985178;28;1585;-35
2022/01/12 06:49:29;;;;;;;;;;;;;;;18.62;57.17;102404.19;4990967;28;1365;-36
2022/01/12 06:51:56;;;;;;;;;;;;;;;18.57;57.17;102405.41;4988183;28;1797;-36
2022/01/12 06:54:22;;;;;;;;;;;;;;;18.54;57.13;102409.13;4981910;28;1724;-36
2022/01/12 06:56:55;;;;;;;;;;;;;;;18.48;56.76;102418.41;4988038;28;1674;-35
2022/01/12 06:59:22;;;;;;;;;;;;;;;18.47;56.99;102402.44;4986722;28;1694;-36
2022/01/12 07:01:51;;;;;;;;;;;;;;;18.45;56.57;102417.72;4992076;28;1980;-36
2022/01/12 07:04:21;;;;;;;;;;;;;;;18.41;57.01;102433.13;4996490;28;1938;-36
2022/01/12 07:06:49;;;;;;;;;;;;;;;18.43;56.97;102419.63;4993786;28;1691;-36
2022/01/12 07:09:18;;;;;;;;;;;;;;;18.40;56.65;102420.69;4993466;28;1707;-36
2022/01/12 07:11:53;;;;;;;;;;;;;;;18.38;56.84;102427.97;4988153;28;1883;-35
2022/01/12 07:14:25;;;;;;;;;;;;;;;18.39;56.97;102421.63;4991276;28;1667;-36
2022/01/12 07:16:55;;;;;;;;;;;;;;;18.36;56.76;102432.50;4989002;28;1935;-37
2022/01/12 07:19:24;;;;;;;;;;;;;;;18.40;56.99;102425.16;4988307;28;1061;-36
2022/01/12 07:21:53;;;;;;;;;;;;;;;18.42;56.69;102442.00;4987628;28;1973;-36
2022/01/12 07:24:23;;;;;;;;;;;;;;;18.39;56.68;102431.50;4990241;28;1920;-36
2022/01/12 07:26:49;;;;;;;;;;;;;;;18.42;56.82;102436.66;4985307;28;1722;-36
2022/01/12 07:29:19;;;;;;;;;;;;;;;18.41;56.77;102437.63;4985009;28;1843;-36
2022/01/12 07:31:51;;;;;;;;;;;;;;;18.44;56.97;102448.13;4988996;28;1920;-35
2022/01/12 07:34:21;;;;;;;;;;;;;;;18.46;57.06;102441.75;4996467;28;2050;-35
2022/01/12 07:36:50;;;;;;;;;;;;;;;18.44;57.14;102450.81;4984937;28;1903;-37
2022/01/12 07:39:18;;;;;;;;;;;;;;;18.42;56.97;102434.84;4988006;28;1822;-36
2022/01/12 07:41:47;;;;;;;;;;;;;;;18.42;56.86;102431.28;4984305;28;1906;-36
2022/01/12 07:44:14;;;;;;;;;;;;;;;18.45;56.98;102449.88;4991686;28;1793;-36
2022/01/12 07:46:42;;;;;;;;;;;;;;;18.40;56.87;102451.94;4980535;28;1408;-36
2022/01/12 07:49:14;;;;;;;;;;;;;;;18.39;57.12;102435.03;4986543;28;1096;-36
2022/01/12 07:51:44;;;;;;;;;;;;;;;18.39;57.10;102439.53;4981271;28;1790;-36
2022/01/12 07:54:13;;;;;;;;;;;;;;;18.48;56.21;102460.38;4981899;28;1878;-36
2022/01/12 07:56:41;;;;;;;;;;;;;;;18.44;57.68;102458.84;4978930;28;1752;-36
2022/01/12 07:59:16;;;;;;;;;;;;;;;18.43;58.93;102455.31;4992186;28;1999;-37
2022/01/12 08:01:44;;;;;;;;;;;;;;;18.41;58.47;102446.50;4980477;28;1903;-36
2022/01/12 08:04:16;;;;;;;;;;;;;;;18.46;58.85;102467.66;4995473;28;1912;-36
2022/01/12 08:06:47;;;;;;;;;;;;;;;18.51;58.67;102465.59;4991076;28;1943;-36
2022/01/12 08:09:16;;;;;;;;;;;;;;;18.72;58.04;102458.09;4991216;28;2012;-36
2022/01/12 08:11:44;;;;;;;;;;;;;;;18.67;58.62;102458.34;4982770;28;1753;-37
2022/01/12 08:14:11;;;;;;;;;;;;;;;18.66;58.41;102469.16;4987549;28;1478;-39
2022/01/12 08:16:42;;;;;;;;;;;;;;;18.64;58.68;102463.91;4981139;28;1791;-38
2022/01/12 08:19:09;;;;;;;;;;;;;;;18.68;58.53;102470.81;4983185;28;1598;-37
2022/01/12 08:21:42;;;;;;;;;;;;;;;18.64;59.12;102471.94;4989951;28;1993;-36
2022/01/12 08:24:11;;;;;;;;;;;;;;;18.53;59.07;102473.53;4987134;28;1372;-37
2022/01/12 08:26:59;;;;;;;;;;;;;;;18.65;59.00;102478.16;4990015;28;1906;-36
2022/01/12 08:29:28;;;;;;;;;;;;;;;18.63;58.91;102464.84;4981502;28;1421;-36
2022/01/12 08:31:59;;;;;;;;;;;;;;;18.64;59.52;102488.03;4988919;28;1468;-36
2022/01/12 08:34:26;;;;;;;;;;;;;;;18.61;59.94;102485.50;4996792;28;1729;-36
2022/01/12 08:36:57;;;;;;;;;;;;;;;18.63;59.94;102483.59;4998160;28;1785;-35
2022/01/12 08:39:24;;;;;;;;;;;;;;;18.67;59.89;102490.50;4983285;28;1404;-36
2022/01/12 08:41:53;;;;;;;;;;;;;;;18.57;60.29;102480.44;4987412;28;1979;-36
2022/01/12 08:44:24;;;;;;;;;;;;;;;18.61;59.89;102490.03;4982090;28;1916;-36
2022/01/12 08:46:50;;;;;;;;;;;;;;;18.54;59.80;102484.13;4985139;28;1617;-36
2022/01/12 08:49:21;;;;;;;;;;;;;;;18.57;60.01;102483.97;4983963;28;1627;-36
2022/01/12 08:51:48;;;;;;;;;;;;;;;18.60;60.11;102489.16;4993562;28;1593;-36
2022/01/12 08:54:20;;;;;;;;;;;;;;;18.59;59.63;102494.59;4991136;28;1891;-35
2022/01/12 08:56:47;;;;;;;;;;;;;;;18.61;59.82;102485.50;4987381;28;1786;-36
2022/01/12 08:59:34;;;;;;;;;;;;;;;18.55;60.38;102483.19;4990095;28;1631;-36
2022/01/12 09:02:01;;;;;;;;;;;;;;;18.53;60.32;102490.47;4985497;28;1938;-36
2022/01/12 09:04:40;;;;;;;;;;;;;;;18.58;60.39;102480.34;4993615;28;1317;-37
2022/01/12 09:07:19;;;;;;;;;;;;;;;18.59;59.66;102490.09;4991592;28;1568;-36
2022/01/12 09:09:52;;;;;;;;;;;;;;;18.58;59.70;102488.38;4991266;28;1631;-36
2022/01/12 09:12:23;;;;;;;;;;;;;;;18.55;59.88;102488.56;4987034;28;1761;-36
2022/01/12 09:14:51;;;;;;;;;;;;;;;18.54;60.17;102486.81;4988817;28;1649;-37
2022/01/12 09:17:35;;;;;;;;;;;;;;;18.56;59.93;102492.97;4991637;28;2245;-36
2022/01/12 09:20:04;;;;;;;;;;;;;;;18.60;60.50;102478.44;4994323;28;1648;-36
2022/01/12 09:22:33;;;;;;;;;;;;;;;18.65;59.37;102479.00;4983466;28;1969;-36
2022/01/12 09:25:17;;;;;;;;;;;;;;;18.61;59.57;102476.63;4988204;28;1753;-36
2022/01/12 09:27:49;;;;;;;;;;;;;;;18.51;59.73;102481.66;4979536;28;1757;-37
2022/01/12 09:30:22;;;;;;;;;;;;;;;18.47;59.78;102478.28;4985403;28;1793;-36
2022/01/12 09:32:50;;;;;;;;;;;;;;;18.50;59.83;102482.59;4982186;28;1844;-37
2022/01/12 09:35:16;;;;;;;;;;;;;;;18.47;59.63;102472.94;4984251;28;1376;-37
2022/01/12 09:37:47;;;;;;;;;;;;;;;18.45;60.20;102466.81;4984467;28;1076;-37
2022/01/12 09:40:14;;;;;;;;;;;;;;;18.50;59.76;102479.91;4978481;28;1683;-37
2022/01/12 09:42:46;;;;;;;;;;;;;;;18.51;60.09;102481.66;4987694;28;1956;-36
2022/01/12 09:45:17;;;;;;;;;;;;;;;18.59;59.67;102489.25;4982124;28;1956;-36
2022/01/12 09:47:47;;;;;;;;;;;;;;;18.63;60.23;102469.34;4985449;28;1800;-37
2022/01/12 09:52:55;;;;;;;;;;;;;;;18.63;59.56;102469.34;4988154;28;2308;-36
2022/01/12 09:55:22;;;;;;;;;;;;;;;18.59;59.63;102479.38;4990677;28;1593;-36
2022/01/12 09:57:51;;;;;;;;;;;;;;;18.63;59.60;102469.34;4991603;28;1954;-37
2022/01/12 10:00:34;;;;;;;;;;;;;;;18.61;59.88;102471.25;4992750;28;1692;-37
2022/01/12 10:03:11;;;;;;;;;;;;;;;18.63;59.72;102459.50;4991351;28;1981;-36
2022/01/12 10:05:55;;;;;;;;;;;;;;;18.60;59.48;102464.16;4992687;28;1721;-36
2022/01/12 10:08:21;;;;;;;;;;;;;;;18.56;60.07;102462.63;4989030;28;1874;-37
2022/01/12 10:11:01;;;;;;;;;;;;;;;18.62;59.92;102463.13;4992499;28;1986;-37
2022/01/12 10:13:30;;;;;;;;;;;;;;;18.63;60.37;102459.50;4986127;28;1003;-36
2022/01/12 10:16:05;;;;;;;;;;;;;;;18.57;60.36;102446.47;4984767;28;1790;-36
2022/01/12 10:18:46;;;;;;;;;;;;;;;18.61;59.86;102456.03;4993607;28;1786;-36
2022/01/12 10:21:27;;;;;;;;;;;;;;;18.60;60.43;102457.00;4990814;28;1566;-37
2022/01/12 10:24:00;;;;;;;;;;;;;;;18.66;60.90;102456.63;4990173;28;1918;-37
2022/01/12 10:26:34;;;;;;;;;;;;;;;18.66;60.99;102453.97;4977494;28;1583;-36
2022/01/12 10:29:08;;;;;;;;;;;;;;;18.63;60.21;102453.28;4991434;28;1645;-36
2022/01/12 10:31:56;;;;;;;;;;;;;;;18.69;60.82;102460.94;4988105;28;1552;-36
2022/01/12 10:34:23;;;;;;;;;;;;;;;18.73;60.60;102450.91;4988450;28;1370;-36
2022/01/12 10:36:51;;;;;;;;;;;;;;;18.65;60.80;102441.50;4990140;28;1660;-36
2022/01/12 10:39:27;;;;;;;;;;;;;;;18.66;60.71;102440.56;4985591;28;1957;-36
2022/01/12 10:42:03;;;;;;;;;;;;;;;18.60;60.41;102440.94;4988744;28;1703;-36
2022/01/12 10:44:32;;;;;;;;;;;;;;;18.55;60.83;102452.88;4984391;28;1969;-36
2022/01/12 10:47:16;;;;;;;;;;;;;;;18.51;60.93;102446.84;4984357;28;1957;-36
2022/01/12 10:49:44;;;;;;;;;;;;;;;18.51;61.10;102449.50;4986829;28;1562;-36
2022/01/12 10:52:31;;;;;;;;;;;;;;;18.58;60.43;102450.00;4992055;28;1683;-36
2022/01/12 10:55:01;;;;;;;;;;;;;;;18.58;60.47;102445.53;4980172;28;1719;-36
2022/01/12 10:57:31;;;;;;;;;;;;;;;18.57;60.02;102438.44;4983009;28;1665;-36
2022/01/12 11:00:07;;;;;;;;;;;;;;;18.59;60.45;102443.69;4981526;28;1990;-36
2022/01/12 11:02:39;;;;;;;;;;;;;;;18.64;60.17;102449.63;4984196;28;1906;-37
2022/01/12 11:05:07;;;;;;;;;;;;;;;18.72;59.85;102441.13;4996293;28;1520;-36
2022/01/12 11:07:35;;;;;;;;;;;;;;;18.71;60.23;102440.28;4992205;28;1483;-37
2022/01/12 11:10:02;;;;;;;;;;;;;;;18.68;59.61;102438.66;4991340;28;1589;-37
2022/01/12 11:12:30;;;;;;;;;;;;;;;18.77;59.89;102439.03;4990281;28;1614;-37
2022/01/12 11:14:56;;;;;;;;;;;;;;;18.73;59.89;102437.50;4989445;28;1626;-36
2022/01/12 11:17:23;;;;;;;;;;;;;;;18.67;60.22;102436.91;4977562;28;1833;-36
2022/01/12 11:20:11;;;;;;;;;;;;;;;18.60;60.80;102445.41;4994322;28;1520;-37
2022/01/12 11:22:42;;;;;;;;;;;;;;;18.54;60.38;102446.63;4990814;28;2011;-36
2022/01/12 11:25:17;;;;;;;;;;;;;;;18.45;61.31;102445.38;4991683;28;1807;-36
2022/01/12 11:27:51;;;;;;;;;;;;;;;18.41;61.68;102449.19;4981903;28;1900;-37
2022/01/12 11:30:19;;;;;;;;;;;;;;;18.39;61.22;102437.69;4979913;28;2070;-36
2022/01/12 11:32:55;;;;;;;;;;;;;;;18.34;60.50;102442.47;4987248;28;1748;-37
2022/01/12 11:35:32;;;;;;;;;;;;;;;18.35;60.53;102440.66;4995594;28;1709;-37
2022/01/12 11:38:00;;;;;;;;;;;;;;;18.38;61.26;102453.84;4988175;28;1440;-36
2022/01/12 11:40:33;;;;;;;;;;;;;;;18.44;60.96;102450.81;4988717;28;1588;-37
2022/01/12 11:43:02;;;;;;;;;;;;;;;18.39;61.21;102442.22;4981506;28;1907;-37
2022/01/12 11:45:33;;;;;;;;;;;;;;;18.44;60.89;102458.84;4978395;28;1918;-36
2022/01/12 11:47:59;;;;;;;;;;;;;;;18.40;61.07;102457.31;4987793;28;1965;-37
2022/01/12 11:50:38;;;;;;;;;;;;;;;18.41;60.87;102442.97;4994398;28;1404;-37
2022/01/12 11:53:07;;;;;;;;;;;;;;;18.41;60.85;102457.22;4984945;28;1742;-37
2022/01/12 11:55:38;;;;;;;;;;;;;;;18.45;60.96;102452.56;4988286;28;1734;-36
2022/01/12 11:58:06;;;;;;;;;;;;;;;18.46;60.68;102456.94;4992238;28;1587;-37
2022/01/12 12:00:40;;;;;;;;;;;;;;;18.48;60.29;102457.72;4986882;28;1646;-36
2022/01/12 12:03:22;;;;;;;;;;;;;;;18.55;60.72;102453.72;4981836;28;1995;-37
2022/01/12 12:05:55;;;;;;;;;;;;;;;18.61;59.84;102445.31;4990161;28;1689;-36
2022/01/12 12:08:28;;;;;;;;;;;;;;;18.65;59.91;102435.28;4994503;28;1935;-37
2022/01/12 12:11:02;;;;;;;;;;;;;;;18.71;60.17;102445.63;4991079;28;1743;-38
2022/01/12 12:13:29;;;;;;;;;;;;;;;18.76;60.29;102454.28;4988816;28;1284;-37
2022/01/12 12:15:57;;;;;;;;;;;;;;;18.76;59.96;102439.97;4987702;28;1436;-37
2022/01/12 12:18:26;;;;;;;;;;;;;;;18.76;59.47;102448.91;4990426;28;1604;-37
2022/01/12 12:20:58;;;;;;;;;;;;;;;18.78;60.16;102430.03;4993325;28;1638;-37
2022/01/12 12:23:29;;;;;;;;;;;;;;;18.81;59.23;102445.97;4986964;28;1911;-37
2022/01/12 12:26:07;;;;;;;;;;;;;;;18.77;60.09;102455.13;4989774;28;1691;-36
2022/01/12 12:28:36;;;;;;;;;;;;;;;18.81;60.42;102451.34;4987364;28;1498;-35
2022/01/12 12:31:05;;;;;;;;;;;;;;;18.82;59.05;102455.72;4996796;28;1625;-36
2022/01/12 12:33:35;;;;;;;;;;;;;;;18.87;58.82;102462.53;4990674;28;1055;-37
2022/01/12 12:36:08;;;;;;;;;;;;;;;18.86;59.25;102449.22;4975299;28;1841;-35
2022/01/12 12:38:37;;;;;;;;;;;;;;;18.90;58.83;102472.22;4992568;28;1800;-36
2022/01/12 12:41:04;;;;;;;;;;;;;;;18.85;58.87;102469.81;4991458;28;1546;-37
2022/01/12 12:43:35;;;;;;;;;;;;;;;18.95;58.87;102454.03;4993996;28;1906;-36
2022/01/12 12:46:22;;;;;;;;;;;;;;;18.90;58.87;102458.81;4975282;28;1738;-38
2022/01/12 12:49:03;;;;;;;;;;;;;;;18.90;58.59;102477.59;4983702;28;1612;-37
2022/01/12 12:51:36;;;;;;;;;;;;;;;18.84;57.41;102476.13;4985827;28;1785;-37
2022/01/12 12:54:04;;;;;;;;;;;;;;;18.82;57.98;102458.41;4980461;28;1392;-37
2022/01/12 12:56:40;;;;;;;;;;;;;;;18.83;57.91;102466.34;4989095;28;1663;-36
2022/01/12 12:59:14;;;;;;;;;;;;;;;18.80;57.95;102469.25;4982001;28;1739;-36
2022/01/12 13:01:44;;;;;;;;;;;;;;;18.87;59.04;102477.75;4982384;28;1655;-36
2022/01/12 13:04:16;;;;;;;;;;;;;;;18.76;58.32;102469.47;4984119;28;1911;-36
2022/01/12 13:06:47;;;;;;;;;;;;;;;18.73;58.57;102467.84;4995111;28;1382;-37
2022/01/12 13:09:16;;;;;;;;;;;;;;;18.77;59.47;102479.25;4988546;28;1682;-37
2022/01/12 13:11:46;;;;;;;;;;;;;;;18.92;59.28;102477.47;4980249;28;1598;-36
2022/01/12 13:14:17;;;;;;;;;;;;;;;18.83;58.54;102476.22;4976610;28;1592;-37
2022/01/12 13:16:48;;;;;;;;;;;;;;;18.82;59.62;102480.72;4983072;28;1490;-37
2022/01/12 13:19:23;;;;;;;;;;;;;;;18.76;59.32;102474.81;4993739;28;1983;-37
2022/01/12 13:21:52;;;;;;;;;;;;;;;18.73;59.38;102472.34;4989489;28;1381;-36
2022/01/12 13:24:22;;;;;;;;;;;;;;;18.72;58.90;102482.22;4991426;28;1993;-36
2022/01/12 13:26:55;;;;;;;;;;;;;;;18.68;59.08;102473.50;4985300;28;1794;-36
2022/01/12 13:29:22;;;;;;;;;;;;;;;18.66;59.54;102470.03;4977990;28;1758;-37
2022/01/12 13:34:36;;;;;;;;;;;;;;;18.69;58.80;102487.75;4984940;28;2639;-36
2022/01/12 13:37:16;;;;;;;;;;;;;;;18.76;58.97;102485.53;4984781;28;1604;-37
2022/01/12 13:39:43;;;;;;;;;;;;;;;18.83;59.42;102481.59;4991275;28;1421;-37
2022/01/12 13:42:12;;;;;;;;;;;;;;;18.80;60.61;102490.69;4993757;28;1894;-35
2022/01/12 13:44:38;;;;;;;;;;;;;;;18.85;60.46;102487.72;4992955;28;1933;-36
2022/01/12 13:47:11;;;;;;;;;;;;;;;18.78;60.30;102484.53;4990823;28;1832;-37
2022/01/12 13:49:39;;;;;;;;;;;;;;;18.84;59.89;102483.28;4990157;28;1573;-36
2022/01/12 13:52:22;;;;;;;;;;;;;;;18.81;59.34;102479.00;4993401;28;1492;-36
2022/01/12 13:54:54;;;;;;;;;;;;;;;18.94;59.52;102478.25;4992202;28;1785;-37
2022/01/12 13:57:31;;;;;;;;;;;;;;;18.92;59.40;102489.09;4994728;28;1705;-37
2022/01/12 13:59:59;;;;;;;;;;;;;;;18.90;58.72;102461.50;4988262;28;1599;-37
2022/01/12 14:02:30;;;;;;;;;;;;;;;18.85;59.19;102490.41;4990950;28;1676;-36
2022/01/12 14:05:06;;;;;;;;;;;;;;;18.88;57.81;102495.59;4995755;28;1910;-36
2022/01/12 14:07:48;;;;;;;;;;;;;;;19.05;58.35;102500.75;4994366;28;2070;-37
2022/01/12 14:10:16;;;;;;;;;;;;;;;18.98;59.09;102496.75;4990409;28;1694;-37
2022/01/12 14:15:33;;;;;;;;;;;;;;;19.02;58.11;102506.34;4993636;28;2519;-36
2022/01/12 14:18:06;;;;;;;;;;;;;;;19.01;58.39;102501.91;4993399;28;1617;-37
2022/01/12 14:20:36;;;;;;;;;;;;;;;18.93;59.41;102496.16;4992434;28;1780;-37
2022/01/12 14:25:50;;;;;;;;;;;;;;;18.84;59.36;102499.38;4989690;28;2268;-36
2022/01/12 14:28:19;;;;;;;;;;;;;;;18.83;59.59;102506.56;4985924;28;1526;-37
2022/01/12 14:30:46;;;;;;;;;;;;;;;18.84;58.38;102504.75;4988809;28;1575;-37
2022/01/12 14:33:17;;;;;;;;;;;;;;;18.92;58.79;102517.69;4992356;28;1575;-37
2022/01/12 14:35:45;;;;;;;;;;;;;;;18.83;58.85;102495.00;4987170;28;1397;-35
2022/01/12 14:38:11;;;;;;;;;;;;;;;18.76;57.77;102497.16;4991438;28;1314;-37